Terminal Aerodrome Forecast
Issued by NWS Bismarck, ND

Home | Current Version | Previous Version | Graphics & Text | Print | Product List | Glossary On
Versions: 1 2 3 4 5 6 7 8 9 10 11 12 13 14 15 16 17 18 19 20 21 22
000
FTUS43 KBIS 150900 AAA
TAFBIS
TAF AMD
KBIS 150943Z 1510/1606 35019G25KT P6SM VCSH OVC015
      TEMPO 1510/1514 -FZDZ
     FM151400 34018G28KT P6SM OVC010
     FM160000 33011KT P6SM OVC050=

USA.gov is the U.S. government's official web portal to all federal, state and local government web resources and services.